• Join FlightAware (Why Join?)
  • Login
  • US Flag 
10:25PM EST


 

Airport Tracker/Info


-or-


 

Live Flight TrackerFlight Track Log ✈ EJA922 ✈ 19-Jan-2014 ✈ SKCG / CTG - KMIA

Flight Track Log - Related Links

Times and Time Zones

All times are in EST time to prevent confusion due to time zone crossing. See the EJA922 flight status page for this flight to view local times or setup timezone preferences in your user account.

Time Position Orientation Groundspeed Altitude Reporting Facility
EST Latitude Longitude Course Direction KTS MPH feet Rate Location/Type
10:51PM 20.9972 -78.6960 344° North  Level Estimated
10:52PM 21.1183 -78.7348 343° North  Level Estimated
10:52PM 23.2433 -78.8758 343° North 486 559 43,000  Level Miami Center
10:53PM 21.2393 -78.7737 343° North  Level Estimated
10:53PM 23.3831 -78.9097 347° North 496 571 43,000  Level Miami Center
10:54PM 21.3603 -78.8126 343° North  Level Estimated
10:54PM 23.5161 -78.9436 347° North 485 558 43,000  Level Miami Center
10:55PM 21.4813 -78.8515 343° North  Level Estimated
10:55PM 23.6536 -78.9844 345° North 485 558 43,000  Level Miami Center
10:56PM 21.6022 -78.8906 343° North  Level Estimated
10:56PM 23.7847 -79.0183 347° North 485 558 42,800  Level Miami Center
10:57PM 21.7232 -78.9297 343° North  Level Estimated
10:57PM 23.9197 -79.0753 339° North 496 571 40,300  Level Miami Center
10:58PM 21.8442 -78.9689 343° North  Level Estimated
10:58PM 24.0442 -79.1342 337° Northwest 498 573 37,700  Level Miami Center
10:59PM 24.1708 -79.1889 338° Northwest 476 548 35,000 -2,640 Descending Miami Center
11:00PM 24.3017 -79.2436 339° North 490 564 32,400 -2,580 Descending Miami Center
11:01PM 24.4322 -79.3011 338° Northwest 495 570 29,800 -2,700 Descending Miami Center
11:02PM 24.5631 -79.3583 338° Northwest 502 578 27,100 -2,640 Descending Miami Center
11:03PM 24.6833 -79.4133 337° Northwest 488 562 24,500 -2,460 Descending Miami Center
11:04PM 24.7992 -79.4661 338° Northwest 466 536 22,200 -2,400 Descending Miami Center
11:05PM 24.9175 -79.5167 339° North 456 525 19,700 -2,520 Descending Miami Center
11:06PM 25.0294 -79.5672 338° Northwest 446 513 17,400 -2,340 Descending Miami Center
11:07PM 25.1392 -79.6156 338° Northwest 433 498 15,200 -2,220 Descending Miami Center
11:08PM 25.1828 -79.6372 336° Northwest 358 412 14,200 -2,100 Descending Miami Center
11:08PM 25.2056 -79.6469 339° North 351 404 13,800 -1,440 Descending Miami Center
11:08PM 25.2306 -79.6567 341° North 396 456 13,400 -1,980 Descending Miami Center
11:09PM 25.2925 -79.6903 334° Northwest 339 390 11,900 -1,980 Descending Miami Center
11:09PM 25.3175 -79.6956 349° North 358 412 11,500 -1,800 Descending Miami Center
11:10PM 25.3711 -79.7267 332° Northwest 306 352 10,100 -1,800 Descending Miami Center
11:10PM 25.3961 -79.7342 345° North 327 376 9,700 -1,560 Descending Miami Center
11:11PM 25.4556 -79.7861 322° Northwest 295 339 8,100 -1,500 Descending Miami Center
11:12PM 25.5089 -79.8381 319° Northwest 271 312 6,800 -1,620 Descending Miami Center
11:13PM 25.5458 -79.8758 317° Northwest 238 274 5,400 -1,620 Descending Miami Center
11:13PM 25.5622 -79.8833 338° Northwest 254 292 5,200 -600 Descending Miami Center
11:14PM 25.6011 -79.9256 316° Northwest 249 287 4,800 -600 Descending Miami Center
11:14PM 25.6178 -79.9331 338° Northwest 247 284 4,600 -1,080 Descending Miami Center
11:15PM 25.6628 -79.9778 318° Northwest 248 285 3,600 -1,140 Descending Miami Center
11:15PM 25.6711 -79.9806 343° North 247 284 3,500 -660 Descending Miami Center
11:16PM 25.7161 -80.0231 320° Northwest 248 285 3,000 -540 Descending Miami Center
11:16PM 25.7242 -80.0281 331° Northwest 252 290 3,000  Level Miami Center
11:17PM 25.7672 -80.0683 320° Northwest 254 292 3,000  Level Miami Center
11:17PM 25.7797 -80.0756 333° Northwest 252 290 3,000  Level Miami Center
11:18PM 25.7953 -80.1244 289° West 186 214 3,000 -600 Level Miami Center
11:19PM 25.8006 -80.1661 278° West 118 136 2,000 -900 Descending Miami Center
11:20PM 25.8019 -80.2053 272° West 127 146 1,300 -660 Descending Miami Center
11:21PM 25.8008 -80.2444 268° West 127 146 700 -660 Descending Miami Center
11:23PM 25.7954 -80.2901 266° West  Level Estimated
11:30PM 25.7954 -80.2901 77° East  Level Estimated